Time;durP1;ratioP1;P1;durP2;ratioP2;P2;SDS_P1;SDS_P2;PMS_P1;PMS_P2;Temp;Humidity;BMP_temperature;BMP_pressure;BME280_temperature;BME280_humidity;BME280_pressure;Samples;Min_cycle;Max_cycle;Signal;HPM_P1;HPM_P2
2022/06/21 00:02:26;;;;;;;;;;;21.40;51.10;;;;;;5037823;28;19932;-72
2022/06/21 00:04:53;;;;;;;;;;;21.30;51.10;;;;;;5041036;28;19924;-72
2022/06/21 00:07:23;;;;;;;;;;;21.20;51.20;;;;;;5039741;28;19929;-74
2022/06/21 00:09:49;;;;;;;;;;;21.20;51.10;;;;;;5039250;28;19994;-73
2022/06/21 00:12:16;;;;;;;;;;;21.20;51.20;;;;;;5041033;28;19925;-73
2022/06/21 00:14:43;;;;;;;;;;;21.10;51.30;;;;;;5039028;28;20320;-74
2022/06/21 00:17:13;;;;;;;;;;;21.10;51.30;;;;;;5039261;28;19933;-73
2022/06/21 00:19:41;;;;;;;;;;;21.10;51.40;;;;;;5039735;28;19937;-72
2022/06/21 00:22:09;;;;;;;;;;;21.00;51.40;;;;;;5038037;28;19933;-73
2022/06/21 00:24:36;;;;;;;;;;;21.00;51.50;;;;;;5040408;28;19936;-74
2022/06/21 00:27:03;;;;;;;;;;;20.90;51.50;;;;;;5040544;28;19936;-74
2022/06/21 00:29:29;;;;;;;;;;;20.90;51.70;;;;;;5040270;28;20325;-74
2022/06/21 00:31:56;;;;;;;;;;;20.90;51.70;;;;;;5038881;28;19928;-73
2022/06/21 00:34:24;;;;;;;;;;;20.80;51.80;;;;;;5039442;28;19933;-72
2022/06/21 00:36:50;;;;;;;;;;;20.80;51.90;;;;;;5043831;28;19939;-75
2022/06/21 00:39:18;;;;;;;;;;;20.70;52.00;;;;;;5038525;28;19928;-75
2022/06/21 00:41:47;;;;;;;;;;;20.70;52.10;;;;;;5040037;28;19932;-74
2022/06/21 00:44:16;;;;;;;;;;;20.60;52.10;;;;;;5039687;28;20647;-73
2022/06/21 00:46:44;;;;;;;;;;;20.60;52.20;;;;;;5038341;28;19928;-72
2022/06/21 00:49:14;;;;;;;;;;;20.60;52.30;;;;;;5042270;28;19944;-73
2022/06/21 00:51:43;;;;;;;;;;;20.50;52.30;;;;;;5040577;28;21795;-73
2022/06/21 00:54:12;;;;;;;;;;;20.50;52.30;;;;;;5035839;28;20444;-73
2022/06/21 00:56:42;;;;;;;;;;;20.50;52.50;;;;;;5040598;28;19928;-73
2022/06/21 00:59:19;;;;;;;;;;;20.40;52.50;;;;;;5039371;28;20023;-72
2022/06/21 01:01:46;;;;;;;;;;;20.40;52.50;;;;;;5038359;28;20400;-76
2022/06/21 01:04:15;;;;;;;;;;;20.40;52.60;;;;;;5039737;28;19940;-76
2022/06/21 01:06:44;;;;;;;;;;;20.30;52.70;;;;;;5041244;28;19970;-72
2022/06/21 01:09:14;;;;;;;;;;;20.20;52.70;;;;;;5040553;28;19929;-73
2022/06/21 01:11:42;;;;;;;;;;;20.20;52.70;;;;;;5041351;28;19929;-72
2022/06/21 01:14:09;;;;;;;;;;;20.20;52.90;;;;;;5039946;28;19944;-73
2022/06/21 01:16:36;;;;;;;;;;;20.10;53.00;;;;;;5038523;28;19924;-73
2022/06/21 01:19:03;;;;;;;;;;;20.10;53.00;;;;;;5042833;28;20479;-73
2022/06/21 01:21:31;;;;;;;;;;;20.00;52.90;;;;;;5037493;28;20700;-72
2022/06/21 01:24:05;;;;;;;;;;;20.00;52.90;;;;;;5039078;28;19936;-73
2022/06/21 01:26:36;;;;;;;;;;;20.00;53.10;;;;;;5039068;28;20412;-75
2022/06/21 01:29:04;;;;;;;;;;;20.00;53.10;;;;;;5034589;28;19975;-74
2022/06/21 01:31:31;;;;;;;;;;;19.90;53.20;;;;;;5037212;28;19983;-74
2022/06/21 01:33:57;;;;;;;;;;;19.90;53.30;;;;;;5039089;28;19990;-73
2022/06/21 01:36:26;;;;;;;;;;;19.90;53.40;;;;;;5042027;28;19936;-74
2022/06/21 01:38:54;;;;;;;;;;;19.80;53.30;;;;;;5039058;28;19939;-74
2022/06/21 01:41:21;;;;;;;;;;;19.80;53.40;;;;;;5038500;28;19935;-74
2022/06/21 01:43:51;;;;;;;;;;;19.70;53.60;;;;;;5038309;28;19929;-72
2022/06/21 01:46:20;;;;;;;;;;;19.70;53.60;;;;;;5031751;28;19932;-73
2022/06/21 01:48:48;;;;;;;;;;;19.70;53.70;;;;;;5040944;28;19929;-76
2022/06/21 01:51:16;;;;;;;;;;;19.60;53.70;;;;;;5035218;28;19929;-75
2022/06/21 01:53:42;;;;;;;;;;;19.60;53.80;;;;;;5033033;28;19949;-74
2022/06/21 01:56:13;;;;;;;;;;;19.60;53.80;;;;;;5035518;28;19939;-73
2022/06/21 01:58:43;;;;;;;;;;;19.50;53.80;;;;;;5032598;28;19939;-73
2022/06/21 02:01:14;;;;;;;;;;;19.50;54.00;;;;;;5029459;28;19933;-72
2022/06/21 02:03:42;;;;;;;;;;;19.40;54.00;;;;;;5032817;28;20408;-73
2022/06/21 02:06:11;;;;;;;;;;;19.40;54.10;;;;;;5032281;28;19929;-73
2022/06/21 02:08:39;;;;;;;;;;;19.40;54.10;;;;;;5035468;28;19976;-73
2022/06/21 02:11:07;;;;;;;;;;;19.40;54.20;;;;;;5036231;28;19936;-73
2022/06/21 02:13:39;;;;;;;;;;;19.30;54.20;;;;;;5039155;28;20245;-73
2022/06/21 02:16:08;;;;;;;;;;;19.30;54.40;;;;;;5037154;28;20059;-74
2022/06/21 02:18:40;;;;;;;;;;;19.30;54.40;;;;;;5037328;28;21552;-74
2022/06/21 02:21:11;;;;;;;;;;;19.20;54.50;;;;;;5037848;28;19940;-73
2022/06/21 02:23:40;;;;;;;;;;;19.20;54.60;;;;;;5035122;28;20995;-75
2022/06/21 02:26:06;;;;;;;;;;;19.10;54.60;;;;;;5036878;28;19936;-74
2022/06/21 02:28:33;;;;;;;;;;;19.10;54.60;;;;;;5041698;28;20431;-73
2022/06/21 02:31:00;;;;;;;;;;;19.10;54.60;;;;;;5042009;28;19929;-74
2022/06/21 02:33:28;;;;;;;;;;;19.10;54.70;;;;;;5038328;28;19940;-73
2022/06/21 02:35:58;;;;;;;;;;;19.00;54.80;;;;;;5037143;28;20063;-74
2022/06/21 02:38:27;;;;;;;;;;;19.00;54.80;;;;;;5036379;28;19936;-73
2022/06/21 02:40:56;;;;;;;;;;;18.90;54.40;;;;;;5035187;28;19928;-73
2022/06/21 02:43:27;;;;;;;;;;;18.90;55.20;;;;;;5036634;28;19929;-72
2022/06/21 02:45:55;;;;;;;;;;;18.90;54.90;;;;;;5039134;28;19936;-73
2022/06/21 02:48:25;;;;;;;;;;;18.80;54.90;;;;;;5038986;28;19940;-73
2022/06/21 02:50:53;;;;;;;;;;;18.80;54.60;;;;;;5040933;28;19940;-74
2022/06/21 02:53:23;;;;;;;;;;;18.80;55.10;;;;;;5038887;28;19936;-73
2022/06/21 02:55:53;;;;;;;;;;;18.80;55.20;;;;;;5043593;28;20444;-76
2022/06/21 02:58:23;;;;;;;;;;;18.70;55.20;;;;;;5043204;28;20324;-72
2022/06/21 03:00:50;;;;;;;;;;;18.70;55.20;;;;;;5041342;28;19943;-76
2022/06/21 03:03:19;;;;;;;;;;;18.60;55.20;;;;;;5041699;28;19935;-74
2022/06/21 03:05:46;;;;;;;;;;;18.60;55.80;;;;;;5042715;28;19929;-75
2022/06/21 03:08:13;;;;;;;;;;;18.60;55.30;;;;;;5043041;28;19928;-74
2022/06/21 03:10:42;;;;;;;;;;;18.50;55.50;;;;;;5042074;28;19928;-72
2022/06/21 03:13:11;;;;;;;;;;;18.50;55.50;;;;;;5044834;28;19925;-74
2022/06/21 03:15:37;;;;;;;;;;;18.50;55.30;;;;;;5039330;28;19936;-72
2022/06/21 03:18:05;;;;;;;;;;;18.50;55.40;;;;;;5038120;28;19937;-73
2022/06/21 03:20:33;;;;;;;;;;;18.40;55.40;;;;;;5038600;28;19929;-75
2022/06/21 03:22:59;;;;;;;;;;;18.40;55.50;;;;;;5044094;28;20472;-74
2022/06/21 03:25:28;;;;;;;;;;;18.40;55.60;;;;;;5038854;28;20456;-73
2022/06/21 03:27:58;;;;;;;;;;;18.30;55.60;;;;;;5041154;28;20761;-73
2022/06/21 03:30:26;;;;;;;;;;;18.30;55.60;;;;;;5036493;28;20494;-72
2022/06/21 03:32:55;;;;;;;;;;;18.30;55.70;;;;;;5042857;28;19936;-72
2022/06/21 03:35:21;;;;;;;;;;;18.30;55.80;;;;;;5043579;28;20427;-72
2022/06/21 03:37:48;;;;;;;;;;;18.20;55.80;;;;;;5042913;28;19932;-72
2022/06/21 03:43:06;;;;;;;;;;;18.20;56.10;;;;;;5043253;28;19931;-74
2022/06/21 03:45:35;;;;;;;;;;;18.20;56.30;;;;;;5042059;28;19928;-73
2022/06/21 03:48:06;;;;;;;;;;;18.20;56.20;;;;;;5043471;28;19929;-76
2022/06/21 03:50:37;;;;;;;;;;;18.10;56.30;;;;;;5041497;28;19929;-73
2022/06/21 03:53:06;;;;;;;;;;;18.10;56.40;;;;;;5042617;28;19947;-74
2022/06/21 03:55:37;;;;;;;;;;;18.00;56.30;;;;;;5040016;28;19987;-74
2022/06/21 03:58:07;;;;;;;;;;;18.10;56.60;;;;;;5043058;28;19951;-73
2022/06/21 04:00:36;;;;;;;;;;;18.00;56.40;;;;;;5042135;28;19929;-75
2022/06/21 04:03:05;;;;;;;;;;;18.00;56.50;;;;;;5044776;28;19925;-73
2022/06/21 04:05:35;;;;;;;;;;;18.00;56.70;;;;;;5041462;28;19928;-73
2022/06/21 04:08:02;;;;;;;;;;;18.00;56.70;;;;;;5041351;28;20018;-73
2022/06/21 04:10:32;;;;;;;;;;;17.90;56.70;;;;;;5039354;28;20276;-73
2022/06/21 04:13:03;;;;;;;;;;;17.90;57.30;;;;;;5044072;28;19929;-73
2022/06/21 04:15:33;;;;;;;;;;;17.90;56.80;;;;;;5040591;28;20032;-72
2022/06/21 04:18:06;;;;;;;;;;;17.90;56.80;;;;;;5040279;28;19935;-74
2022/06/21 04:20:34;;;;;;;;;;;17.90;56.90;;;;;;5046111;28;19929;-77
2022/06/21 04:23:04;;;;;;;;;;;17.90;57.00;;;;;;5041463;28;19972;-76
2022/06/21 04:25:33;;;;;;;;;;;17.80;57.00;;;;;;5042067;28;20059;-76
2022/06/21 04:28:03;;;;;;;;;;;17.80;57.00;;;;;;5043232;28;19929;-74
2022/06/21 04:30:32;;;;;;;;;;;17.80;57.20;;;;;;5039919;28;19933;-74
2022/06/21 04:33:02;;;;;;;;;;;17.80;57.20;;;;;;5040921;28;19944;-75
2022/06/21 04:35:32;;;;;;;;;;;17.80;57.20;;;;;;5043848;28;19929;-75
2022/06/21 04:38:02;;;;;;;;;;;17.80;57.30;;;;;;5037431;28;20610;-75
2022/06/21 04:40:32;;;;;;;;;;;17.80;57.30;;;;;;5041032;28;19931;-73
2022/06/21 04:43:01;;;;;;;;;;;17.70;57.40;;;;;;5042551;28;19928;-75
2022/06/21 04:45:32;;;;;;;;;;;17.70;57.30;;;;;;5041643;28;19936;-73
2022/06/21 04:48:05;;;;;;;;;;;17.70;57.20;;;;;;5038587;28;20451;-74
2022/06/21 04:50:32;;;;;;;;;;;17.70;57.00;;;;;;5042827;28;19967;-73
2022/06/21 04:53:01;;;;;;;;;;;17.60;57.00;;;;;;5043010;28;19936;-76
2022/06/21 04:55:31;;;;;;;;;;;17.70;57.50;;;;;;5041389;28;20718;-73
2022/06/21 04:57:57;;;;;;;;;;;17.70;57.40;;;;;;5042238;28;19929;-73
2022/06/21 05:00:24;;;;;;;;;;;17.60;57.00;;;;;;5040900;28;19928;-74
2022/06/21 05:02:52;;;;;;;;;;;17.60;57.40;;;;;;5043302;28;19990;-74
2022/06/21 05:05:22;;;;;;;;;;;17.70;57.50;;;;;;5043407;28;19935;-76
2022/06/21 05:07:50;;;;;;;;;;;17.70;57.50;;;;;;5042952;28;19936;-75
2022/06/21 05:10:18;;;;;;;;;;;17.60;57.50;;;;;;5041145;28;19931;-76
2022/06/21 05:12:44;;;;;;;;;;;17.60;57.10;;;;;;5038083;28;19924;-73
2022/06/21 05:15:14;;;;;;;;;;;17.60;57.50;;;;;;5039050;28;19929;-73
2022/06/21 05:17:42;;;;;;;;;;;17.60;57.50;;;;;;5038060;28;19955;-74
2022/06/21 05:20:13;;;;;;;;;;;17.60;57.50;;;;;;5038982;28;19940;-72
2022/06/21 05:22:42;;;;;;;;;;;17.60;57.60;;;;;;5039351;28;19950;-73
2022/06/21 05:25:15;;;;;;;;;;;17.60;59.20;;;;;;5037613;28;19929;-73
2022/06/21 05:27:45;;;;;;;;;;;17.50;59.60;;;;;;5038781;28;19929;-74
2022/06/21 05:30:15;;;;;;;;;;;17.50;59.60;;;;;;5040550;28;19928;-73
2022/06/21 05:32:44;;;;;;;;;;;17.40;59.60;;;;;;5032191;28;20012;-73
2022/06/21 05:35:14;;;;;;;;;;;17.40;59.50;;;;;;5035799;28;19932;-73
2022/06/21 05:37:49;;;;;;;;;;;17.40;59.30;;;;;;5034815;28;19929;-73
2022/06/21 05:40:17;;;;;;;;;;;17.40;59.20;;;;;;5040275;28;19940;-70
2022/06/21 05:42:45;;;;;;;;;;;17.50;59.10;;;;;;5042362;28;19929;-67
2022/06/21 05:45:13;;;;;;;;;;;17.40;59.10;;;;;;5043858;28;19936;-67
2022/06/21 05:47:41;;;;;;;;;;;17.40;59.10;;;;;;5042404;28;19933;-67
2022/06/21 05:50:08;;;;;;;;;;;17.40;59.00;;;;;;5045170;28;19932;-68
2022/06/21 05:52:37;;;;;;;;;;;17.50;59.00;;;;;;5047380;28;19939;-68
2022/06/21 05:55:06;;;;;;;;;;;17.50;58.80;;;;;;5043798;28;19935;-68
2022/06/21 05:57:36;;;;;;;;;;;17.50;58.80;;;;;;5045732;28;19929;-68
2022/06/21 06:00:04;;;;;;;;;;;17.50;58.80;;;;;;5044202;28;19929;-69
2022/06/21 06:02:33;;;;;;;;;;;17.50;58.70;;;;;;5037340;28;20433;-68
2022/06/21 06:05:03;;;;;;;;;;;17.50;58.50;;;;;;5043605;28;19928;-68
2022/06/21 06:07:32;;;;;;;;;;;17.50;58.40;;;;;;5045636;28;20007;-68
2022/06/21 06:10:01;;;;;;;;;;;17.60;58.50;;;;;;5042653;28;20313;-73
2022/06/21 06:12:31;;;;;;;;;;;17.60;58.40;;;;;;5044571;28;20565;-73
2022/06/21 06:14:59;;;;;;;;;;;17.60;58.60;;;;;;5046928;28;19936;-73
2022/06/21 06:17:27;;;;;;;;;;;17.60;58.30;;;;;;5042131;28;19928;-74
2022/06/21 06:19:57;;;;;;;;;;;17.60;58.20;;;;;;5044968;28;19933;-73
2022/06/21 06:22:28;;;;;;;;;;;17.70;58.20;;;;;;5042886;28;20031;-72
2022/06/21 06:24:57;;;;;;;;;;;17.70;58.30;;;;;;5045498;28;20605;-73
2022/06/21 06:27:34;;;;;;;;;;;17.70;58.30;;;;;;5044774;28;20332;-75
2022/06/21 06:30:02;;;;;;;;;;;17.70;58.20;;;;;;5045344;28;19935;-72
2022/06/21 06:32:31;;;;;;;;;;;17.80;58.30;;;;;;5043090;28;19928;-72
2022/06/21 06:34:57;;;;;;;;;;;17.80;58.30;;;;;;5045211;28;20415;-73
2022/06/21 06:37:30;;;;;;;;;;;17.80;58.00;;;;;;5042726;28;20455;-74
2022/06/21 06:39:56;;;;;;;;;;;17.80;58.20;;;;;;5041205;28;19933;-73
2022/06/21 06:42:25;;;;;;;;;;;17.80;57.60;;;;;;5041327;28;19929;-72
2022/06/21 06:44:54;;;;;;;;;;;17.90;58.50;;;;;;5040170;28;19959;-71
2022/06/21 06:47:25;;;;;;;;;;;17.80;58.30;;;;;;5037982;28;19929;-75
2022/06/21 06:49:54;;;;;;;;;;;17.90;58.20;;;;;;5038110;28;19929;-72
2022/06/21 06:52:22;;;;;;;;;;;17.90;58.30;;;;;;5037351;28;19929;-68
2022/06/21 06:54:53;;;;;;;;;;;17.90;58.10;;;;;;5036591;28;20357;-67
2022/06/21 06:57:23;;;;;;;;;;;17.90;58.10;;;;;;5044692;28;19929;-68
2022/06/21 06:59:49;;;;;;;;;;;18.00;58.00;;;;;;5038713;28;19960;-70
2022/06/21 07:02:23;;;;;;;;;;;18.00;57.80;;;;;;5043251;28;19956;-70
2022/06/21 07:04:55;;;;;;;;;;;18.00;57.80;;;;;;5043206;28;19933;-69
2022/06/21 07:07:24;;;;;;;;;;;18.00;57.60;;;;;;5042372;28;19933;-68
2022/06/21 07:09:52;;;;;;;;;;;18.10;57.70;;;;;;5042843;28;20266;-67
2022/06/21 07:12:19;;;;;;;;;;;18.10;57.40;;;;;;5045998;28;19929;-69
2022/06/21 07:14:47;;;;;;;;;;;18.10;57.50;;;;;;5043668;28;20541;-67
2022/06/21 07:17:17;;;;;;;;;;;18.20;57.70;;;;;;5040379;28;19979;-68
2022/06/21 07:19:46;;;;;;;;;;;18.20;57.40;;;;;;5042825;28;19933;-69
2022/06/21 07:22:15;;;;;;;;;;;18.20;57.50;;;;;;5044058;28;19974;-69
2022/06/21 07:24:43;;;;;;;;;;;18.30;57.20;;;;;;5038061;28;20040;-68
2022/06/21 07:27:11;;;;;;;;;;;18.30;57.20;;;;;;5043520;28;19928;-67
2022/06/21 07:29:40;;;;;;;;;;;18.30;57.20;;;;;;5044602;28;19935;-68
2022/06/21 07:32:10;;;;;;;;;;;18.40;57.20;;;;;;5038742;28;19983;-68
2022/06/21 07:34:39;;;;;;;;;;;18.40;57.30;;;;;;5042977;28;20468;-68
2022/06/21 07:37:10;;;;;;;;;;;18.40;57.20;;;;;;5046305;28;20773;-69
2022/06/21 07:39:40;;;;;;;;;;;18.40;57.30;;;;;;5041549;28;19929;-69
2022/06/21 07:42:09;;;;;;;;;;;18.40;57.50;;;;;;5043190;28;20300;-67
2022/06/21 07:44:40;;;;;;;;;;;18.40;57.40;;;;;;5043959;28;19933;-68
2022/06/21 07:47:09;;;;;;;;;;;18.40;57.50;;;;;;5041333;28;19944;-67
2022/06/21 07:49:37;;;;;;;;;;;18.40;57.60;;;;;;5043590;28;19933;-70
2022/06/21 07:52:07;;;;;;;;;;;18.50;57.70;;;;;;5042521;28;19948;-67
2022/06/21 07:54:36;;;;;;;;;;;18.50;57.60;;;;;;5041499;28;20344;-67
2022/06/21 07:57:06;;;;;;;;;;;18.50;57.70;;;;;;5042926;28;19929;-76
2022/06/21 07:59:35;;;;;;;;;;;18.50;57.80;;;;;;5039959;28;19929;-74
2022/06/21 08:07:36;;;;;;;;;;;18.60;57.80;;;;;;5039071;28;19962;-75
2022/06/21 08:10:08;;;;;;;;;;;18.60;57.60;;;;;;5036152;28;19928;-75
2022/06/21 08:12:35;;;;;;;;;;;18.60;57.70;;;;;;5042871;28;19934;-75
2022/06/21 08:15:02;;;;;;;;;;;18.70;57.80;;;;;;5041198;28;19936;-75
2022/06/21 08:17:32;;;;;;;;;;;18.70;57.90;;;;;;5037609;28;20018;-75
2022/06/21 08:20:02;;;;;;;;;;;18.70;57.70;;;;;;5037292;28;20407;-75
2022/06/21 08:22:32;;;;;;;;;;;18.80;57.80;;;;;;5039570;28;19929;-75
2022/06/21 08:25:02;;;;;;;;;;;18.80;57.90;;;;;;5037585;28;19933;-76
2022/06/21 08:27:35;;;;;;;;;;;18.80;57.70;;;;;;5040449;28;19936;-74
2022/06/21 08:30:06;;;;;;;;;;;18.80;57.60;;;;;;5039175;28;20028;-74
2022/06/21 08:32:34;;;;;;;;;;;18.90;57.60;;;;;;5038416;28;20329;-77
2022/06/21 08:35:04;;;;;;;;;;;18.90;57.70;;;;;;5040149;28;19936;-75
2022/06/21 08:37:36;;;;;;;;;;;19.00;57.70;;;;;;5039399;28;19928;-74
2022/06/21 08:40:08;;;;;;;;;;;19.00;57.70;;;;;;5037431;28;20012;-75
2022/06/21 08:42:52;;;;;;;;;;;19.10;57.80;;;;;;5040905;28;19929;-73
2022/06/21 08:45:44;;;;;;;;;;;19.10;57.50;;;;;;5036594;28;19928;-73
2022/06/21 08:48:29;;;;;;;;;;;19.20;57.30;;;;;;5037451;28;20456;-74
2022/06/21 08:51:10;;;;;;;;;;;19.20;57.30;;;;;;5039983;28;19928;-73
2022/06/21 08:53:44;;;;;;;;;;;19.20;57.00;;;;;;5036879;28;19936;-74
2022/06/21 08:56:13;;;;;;;;;;;19.30;57.10;;;;;;5040717;28;19935;-73
2022/06/21 08:58:50;;;;;;;;;;;19.30;57.10;;;;;;5038058;28;19936;-73
2022/06/21 09:01:21;;;;;;;;;;;19.30;57.00;;;;;;5039802;28;19939;-74
2022/06/21 09:04:00;;;;;;;;;;;19.40;57.00;;;;;;5036106;28;20031;-74
2022/06/21 09:06:33;;;;;;;;;;;19.40;57.00;;;;;;5037924;28;20323;-74
2022/06/21 09:09:04;;;;;;;;;;;19.50;56.70;;;;;;5036425;28;19932;-74
2022/06/21 09:11:35;;;;;;;;;;;19.50;56.70;;;;;;5041022;28;20412;-73
2022/06/21 09:14:19;;;;;;;;;;;19.50;56.60;;;;;;5042356;28;19928;-74
2022/06/21 09:16:51;;;;;;;;;;;19.60;56.70;;;;;;4984660;28;19929;-75
2022/06/21 09:19:22;;;;;;;;;;;19.60;56.60;;;;;;5031012;28;20011;-76
2022/06/21 09:21:54;;;;;;;;;;;19.60;56.60;;;;;;5029799;28;19931;-75
2022/06/21 09:24:31;;;;;;;;;;;19.70;56.30;;;;;;5035599;28;20365;-67
2022/06/21 09:26:59;;;;;;;;;;;19.80;56.30;;;;;;5041882;28;19936;-67
2022/06/21 09:29:30;;;;;;;;;;;19.80;56.10;;;;;;5042052;28;19940;-68
2022/06/21 09:32:06;;;;;;;;;;;20.00;56.30;;;;;;5033019;28;19929;-67
2022/06/21 09:34:39;;;;;;;;;;;19.90;56.30;;;;;;5036552;28;19929;-69
2022/06/21 09:37:11;;;;;;;;;;;20.00;56.20;;;;;;5048615;28;20537;-68
2022/06/21 09:39:41;;;;;;;;;;;20.00;56.40;;;;;;5039145;28;19935;-67
2022/06/21 09:42:12;;;;;;;;;;;20.00;56.10;;;;;;5040830;28;20031;-68
2022/06/21 09:44:42;;;;;;;;;;;20.10;56.30;;;;;;5039839;28;20300;-76
2022/06/21 09:47:11;;;;;;;;;;;20.10;56.60;;;;;;5039206;28;20410;-75
2022/06/21 09:49:42;;;;;;;;;;;20.10;56.40;;;;;;5040879;28;19933;-75
2022/06/21 09:52:13;;;;;;;;;;;20.20;56.10;;;;;;5040898;28;19929;-75
2022/06/21 09:54:42;;;;;;;;;;;20.30;56.20;;;;;;5040666;28;19964;-75
2022/06/21 09:57:16;;;;;;;;;;;20.30;56.20;;;;;;5035634;28;19935;-76
2022/06/21 09:59:48;;;;;;;;;;;20.40;56.20;;;;;;5036934;28;19933;-77
2022/06/21 10:02:18;;;;;;;;;;;20.40;55.90;;;;;;5039321;28;19939;-75
2022/06/21 10:04:47;;;;;;;;;;;20.50;55.90;;;;;;5039729;28;19929;-75
2022/06/21 10:07:23;;;;;;;;;;;20.50;55.90;;;;;;5036316;28;19939;-76
2022/06/21 10:09:53;;;;;;;;;;;20.60;55.90;;;;;;5040219;28;19925;-77
2022/06/21 10:12:24;;;;;;;;;;;20.70;55.90;;;;;;5042090;28;19925;-76
2022/06/21 10:15:05;;;;;;;;;;;20.70;55.70;;;;;;5043161;28;19975;-77
2022/06/21 10:17:50;;;;;;;;;;;20.80;55.40;;;;;;5026545;28;19932;-77
2022/06/21 10:20:26;;;;;;;;;;;20.90;55.00;;;;;;5046322;28;19937;-77
2022/06/21 10:22:57;;;;;;;;;;;20.90;55.00;;;;;;5040406;28;19929;-76
2022/06/21 10:25:45;;;;;;;;;;;21.10;54.80;;;;;;5034515;28;19936;-75
2022/06/21 10:28:29;;;;;;;;;;;21.10;55.00;;;;;;5038461;28;19936;-76
2022/06/21 10:31:03;;;;;;;;;;;21.20;54.90;;;;;;5040970;28;19932;-76
2022/06/21 10:33:38;;;;;;;;;;;21.20;55.20;;;;;;5043383;28;19933;-78
2022/06/21 10:36:09;;;;;;;;;;;21.30;54.40;;;;;;5046497;28;20347;-77
2022/06/21 10:38:47;;;;;;;;;;;21.40;54.40;;;;;;5045632;28;19936;-76
2022/06/21 10:41:29;;;;;;;;;;;21.50;54.30;;;;;;5040295;28;19932;-77
2022/06/21 10:44:10;;;;;;;;;;;21.50;54.30;;;;;;5043808;28;20407;-76
2022/06/21 10:46:38;;;;;;;;;;;21.60;54.10;;;;;;5042599;28;20417;-75
2022/06/21 10:49:29;;;;;;;;;;;21.70;54.10;;;;;;5046659;28;19936;-79
2022/06/21 10:52:04;;;;;;;;;;;21.80;54.00;;;;;;5047008;28;19935;-76
2022/06/21 10:54:49;;;;;;;;;;;21.80;53.80;;;;;;5041905;28;20515;-77
2022/06/21 10:57:21;;;;;;;;;;;21.90;54.00;;;;;;5050872;28;19960;-79
2022/06/21 11:02:49;;;;;;;;;;;22.10;53.70;;;;;;5049597;28;20596;-77
2022/06/21 11:05:18;;;;;;;;;;;22.20;53.80;;;;;;5051886;28;19925;-81
2022/06/21 11:07:46;;;;;;;;;;;22.20;53.80;;;;;;5049477;28;19996;-79
2022/06/21 11:10:18;;;;;;;;;;;22.30;53.10;;;;;;5041869;28;19932;-76
2022/06/21 11:13:03;;;;;;;;;;;22.40;53.20;;;;;;5051108;28;20382;-76
2022/06/21 11:15:35;;;;;;;;;;;22.50;53.40;;;;;;5045198;28;19933;-77
2022/06/21 11:18:08;;;;;;;;;;;22.50;53.30;;;;;;5043132;28;19973;-77
2022/06/21 11:20:40;;;;;;;;;;;22.60;53.20;;;;;;5052009;28;19925;-78
2022/06/21 11:23:14;;;;;;;;;;;22.70;52.90;;;;;;5045182;28;19948;-76
2022/06/21 11:25:47;;;;;;;;;;;22.70;52.90;;;;;;5052914;28;19925;-76
2022/06/21 11:28:19;;;;;;;;;;;22.80;53.10;;;;;;5053617;28;19935;-80
2022/06/21 11:30:49;;;;;;;;;;;22.90;53.30;;;;;;5050517;28;20491;-79
2022/06/21 11:33:21;;;;;;;;;;;23.00;53.20;;;;;;5055183;28;19980;-82
2022/06/21 11:35:51;;;;;;;;;;;23.00;52.70;;;;;;5047592;28;19933;-78
2022/06/21 11:38:24;;;;;;;;;;;23.10;52.60;;;;;;5056293;28;19928;-79
2022/06/21 11:40:56;;;;;;;;;;;23.20;52.70;;;;;;5050843;28;19929;-77
2022/06/21 11:43:32;;;;;;;;;;;23.30;52.00;;;;;;5048740;28;19987;-77
2022/06/21 11:46:07;;;;;;;;;;;23.30;51.70;;;;;;5045733;28;19929;-77
2022/06/21 11:48:51;;;;;;;;;;;23.40;51.80;;;;;;5046814;28;20412;-78
2022/06/21 11:51:25;;;;;;;;;;;23.40;51.80;;;;;;5052996;28;19936;-79
2022/06/21 11:53:55;;;;;;;;;;;23.50;51.60;;;;;;5046795;28;19951;-77
2022/06/21 11:56:25;;;;;;;;;;;23.60;51.60;;;;;;5050866;28;20683;-77
2022/06/21 11:58:55;;;;;;;;;;;23.70;51.40;;;;;;5054498;28;19935;-77
2022/06/21 12:01:24;;;;;;;;;;;23.70;50.90;;;;;;5047618;28;19928;-78
2022/06/21 12:03:56;;;;;;;;;;;23.80;51.50;;;;;;5048561;28;19956;-77
2022/06/21 12:06:29;;;;;;;;;;;23.90;51.50;;;;;;5050695;28;19936;-76
2022/06/21 12:08:59;;;;;;;;;;;24.00;51.10;;;;;;5048042;28;19964;-75
2022/06/21 12:11:31;;;;;;;;;;;24.00;50.80;;;;;;5050987;28;19925;-76
2022/06/21 12:14:06;;;;;;;;;;;24.10;50.60;;;;;;5054304;28;19943;-76
2022/06/21 12:16:37;;;;;;;;;;;24.20;50.60;;;;;;5049197;28;19936;-76
2022/06/21 12:19:06;;;;;;;;;;;24.20;50.40;;;;;;5045340;28;19928;-77
2022/06/21 12:21:33;;;;;;;;;;;24.30;50.40;;;;;;5047669;28;19929;-78
2022/06/21 12:24:02;;;;;;;;;;;24.40;50.60;;;;;;5047955;28;19932;-77
2022/06/21 12:26:31;;;;;;;;;;;24.50;50.90;;;;;;5047506;28;20296;-80
2022/06/21 12:28:59;;;;;;;;;;;24.50;50.60;;;;;;5046951;28;19955;-76
2022/06/21 12:31:28;;;;;;;;;;;24.60;50.30;;;;;;5047122;28;19936;-77
2022/06/21 12:33:58;;;;;;;;;;;24.60;50.10;;;;;;5044595;28;20387;-76
2022/06/21 12:36:32;;;;;;;;;;;24.70;49.90;;;;;;5047793;28;19951;-78
2022/06/21 12:39:03;;;;;;;;;;;24.80;50.20;;;;;;5048758;28;19939;-76
2022/06/21 12:41:44;;;;;;;;;;;24.80;49.90;;;;;;5044657;28;19984;-76
2022/06/21 12:44:18;;;;;;;;;;;24.90;50.20;;;;;;5048654;28;19928;-77
2022/06/21 12:46:48;;;;;;;;;;;24.90;49.90;;;;;;5047942;28;19947;-76
2022/06/21 12:49:34;;;;;;;;;;;25.00;49.90;;;;;;5047397;28;19975;-76
2022/06/21 12:52:03;;;;;;;;;;;25.00;49.90;;;;;;5044885;28;19925;-78
2022/06/21 12:54:35;;;;;;;;;;;25.10;49.50;;;;;;5051542;28;19936;-78
2022/06/21 12:57:20;;;;;;;;;;;25.10;49.60;;;;;;5048039;28;19925;-77
2022/06/21 13:00:02;;;;;;;;;;;25.10;49.50;;;;;;5051265;28;20331;-80
2022/06/21 13:02:48;;;;;;;;;;;25.20;49.50;;;;;;5042819;28;19929;-77
2022/06/21 13:05:26;;;;;;;;;;;25.30;49.40;;;;;;5047901;28;19928;-77
2022/06/21 13:08:12;;;;;;;;;;;25.30;49.50;;;;;;5044266;28;19929;-76
2022/06/21 13:10:40;;;;;;;;;;;25.40;49.50;;;;;;5041390;28;19928;-77
2022/06/21 13:13:17;;;;;;;;;;;25.50;49.50;;;;;;5047595;28;19971;-76
2022/06/21 13:16:07;;;;;;;;;;;25.50;49.50;;;;;;5042091;28;19925;-78
2022/06/21 13:18:51;;;;;;;;;;;25.60;49.00;;;;;;5023553;28;19925;-78
2022/06/21 13:21:23;;;;;;;;;;;25.60;48.90;;;;;;5047981;28;19925;-77
2022/06/21 13:23:55;;;;;;;;;;;25.80;48.80;;;;;;5046557;28;20020;-78
2022/06/21 13:26:28;;;;;;;;;;;25.90;49.20;;;;;;5046364;28;19928;-76
2022/06/21 13:29:00;;;;;;;;;;;25.90;48.60;;;;;;5049674;28;20011;-77
2022/06/21 13:31:31;;;;;;;;;;;26.00;48.70;;;;;;5044901;28;19940;-76
2022/06/21 13:34:04;;;;;;;;;;;26.10;48.40;;;;;;5043094;28;19932;-76
2022/06/21 13:36:37;;;;;;;;;;;26.10;48.60;;;;;;5048445;28;19929;-76
2022/06/21 13:39:13;;;;;;;;;;;26.20;48.40;;;;;;5046273;28;20016;-78
2022/06/21 13:44:28;;;;;;;;;;;26.30;48.10;;;;;;5049029;28;20277;-76
2022/06/21 13:46:59;;;;;;;;;;;26.40;48.30;;;;;;5042103;28;19925;-76
2022/06/21 13:49:30;;;;;;;;;;;26.50;48.50;;;;;;5040245;28;19932;-68
2022/06/21 13:51:59;;;;;;;;;;;26.50;48.50;;;;;;5038663;28;20021;-68
2022/06/21 13:54:28;;;;;;;;;;;26.60;48.50;;;;;;5037514;28;19928;-67
2022/06/21 13:56:58;;;;;;;;;;;26.60;47.80;;;;;;5038589;28;20583;-67
2022/06/21 13:59:28;;;;;;;;;;;26.70;47.70;;;;;;5036402;28;19925;-70
2022/06/21 14:01:57;;;;;;;;;;;26.80;47.50;;;;;;5040955;28;19938;-69
2022/06/21 14:04:30;;;;;;;;;;;26.80;48.30;;;;;;5042587;28;19928;-67
2022/06/21 14:07:03;;;;;;;;;;;26.90;47.40;;;;;;5045520;28;19929;-70
2022/06/21 14:09:33;;;;;;;;;;;27.00;47.30;;;;;;5043799;28;19957;-72
2022/06/21 14:12:01;;;;;;;;;;;27.00;47.40;;;;;;5047742;28;20381;-76
2022/06/21 14:14:32;;;;;;;;;;;27.10;47.10;;;;;;5047077;28;19929;-75
2022/06/21 14:17:01;;;;;;;;;;;27.20;47.10;;;;;;5044987;28;20487;-75
2022/06/21 14:19:32;;;;;;;;;;;27.20;46.70;;;;;;5045873;28;19951;-75
2022/06/21 14:22:04;;;;;;;;;;;27.30;46.80;;;;;;5042911;28;19929;-76
2022/06/21 14:24:36;;;;;;;;;;;27.40;46.80;;;;;;5049700;28;19932;-76
2022/06/21 14:27:07;;;;;;;;;;;27.50;46.50;;;;;;5050544;28;19936;-78
2022/06/21 14:29:39;;;;;;;;;;;27.60;46.40;;;;;;5047662;28;19931;-78
2022/06/21 14:32:12;;;;;;;;;;;27.90;45.30;;;;;;5049593;28;19980;-76
2022/06/21 14:34:41;;;;;;;;;;;28.10;44.90;;;;;;5047717;28;19937;-66
2022/06/21 14:37:13;;;;;;;;;;;28.40;44.60;;;;;;5042139;28;19937;-68
2022/06/21 14:39:42;;;;;;;;;;;28.50;44.40;;;;;;5041409;28;19928;-68
2022/06/21 14:42:14;;;;;;;;;;;28.80;44.30;;;;;;5042027;28;20464;-67
2022/06/21 14:44:46;;;;;;;;;;;29.00;44.20;;;;;;5043420;28;20028;-67
2022/06/21 14:47:16;;;;;;;;;;;29.10;44.10;;;;;;5042021;28;19928;-67
2022/06/21 14:49:46;;;;;;;;;;;29.30;44.20;;;;;;5040604;28;19928;-67
2022/06/21 14:52:26;;;;;;;;;;;29.40;45.10;;;;;;5042947;28;19932;-68